sensor_id;sensor_type;location;lat;lon;timestamp;pressure;altitude;pressure_sealevel;temperature
15062;BMP180;7630;50.306;8.566;2024-01-06T00:01:14;96495.00;;;7.50
15062;BMP180;7630;50.306;8.566;2024-01-06T00:05:16;96505.00;;;7.50
15062;BMP180;7630;50.306;8.566;2024-01-06T00:09:17;96498.00;;;7.20
15062;BMP180;7630;50.306;8.566;2024-01-06T00:13:18;96502.00;;;7.50
15062;BMP180;7630;50.306;8.566;2024-01-06T00:17:19;96515.00;;;6.70
15062;BMP180;7630;50.306;8.566;2024-01-06T00:21:20;96509.00;;;7.70
15062;BMP180;7630;50.306;8.566;2024-01-06T00:25:21;96506.00;;;7.20
15062;BMP180;7630;50.306;8.566;2024-01-06T00:29:22;96520.00;;;8.20
15062;BMP180;7630;50.306;8.566;2024-01-06T00:33:24;96523.00;;;8.50
15062;BMP180;7630;50.306;8.566;2024-01-06T00:37:25;96524.00;;;8.70
15062;BMP180;7630;50.306;8.566;2024-01-06T00:41:26;96530.00;;;8.90
15062;BMP180;7630;50.306;8.566;2024-01-06T00:45:27;96531.00;;;8.40
15062;BMP180;7630;50.306;8.566;2024-01-06T00:49:28;96525.00;;;8.90
15062;BMP180;7630;50.306;8.566;2024-01-06T00:53:30;96540.00;;;8.70
15062;BMP180;7630;50.306;8.566;2024-01-06T00:57:31;96527.00;;;8.90
15062;BMP180;7630;50.306;8.566;2024-01-06T01:01:32;96534.00;;;8.60
15062;BMP180;7630;50.306;8.566;2024-01-06T01:05:33;96532.00;;;8.50
15062;BMP180;7630;50.306;8.566;2024-01-06T01:09:34;96536.00;;;8.70
15062;BMP180;7630;50.306;8.566;2024-01-06T01:13:36;96548.00;;;9.00
15062;BMP180;7630;50.306;8.566;2024-01-06T01:17:37;96541.00;;;9.20
15062;BMP180;7630;50.306;8.566;2024-01-06T01:21:38;96554.00;;;9.40
15062;BMP180;7630;50.306;8.566;2024-01-06T01:25:39;96543.00;;;9.30
15062;BMP180;7630;50.306;8.566;2024-01-06T01:29:40;96547.00;;;9.50
15062;BMP180;7630;50.306;8.566;2024-01-06T01:33:41;96568.00;;;9.70
15062;BMP180;7630;50.306;8.566;2024-01-06T01:37:43;96545.00;;;9.70
15062;BMP180;7630;50.306;8.566;2024-01-06T01:41:44;96550.00;;;9.20
15062;BMP180;7630;50.306;8.566;2024-01-06T01:45:48;96545.00;;;8.50
15062;BMP180;7630;50.306;8.566;2024-01-06T01:49:50;96560.00;;;8.30
15062;BMP180;7630;50.306;8.566;2024-01-06T01:53:52;96559.00;;;8.80
15062;BMP180;7630;50.306;8.566;2024-01-06T01:57:53;96565.00;;;9.00
15062;BMP180;7630;50.306;8.566;2024-01-06T02:01:55;96579.00;;;9.70
15062;BMP180;7630;50.306;8.566;2024-01-06T02:05:56;96580.00;;;9.90
15062;BMP180;7630;50.306;8.566;2024-01-06T02:09:57;96580.00;;;9.90
15062;BMP180;7630;50.306;8.566;2024-01-06T02:13:58;96590.00;;;9.70
15062;BMP180;7630;50.306;8.566;2024-01-06T02:18:00;96582.00;;;9.80
15062;BMP180;7630;50.306;8.566;2024-01-06T02:22:01;96592.00;;;9.40
15062;BMP180;7630;50.306;8.566;2024-01-06T02:26:02;96595.00;;;7.40
15062;BMP180;7630;50.306;8.566;2024-01-06T02:30:05;96594.00;;;8.60
15062;BMP180;7630;50.306;8.566;2024-01-06T02:34:06;96599.00;;;8.50
15062;BMP180;7630;50.306;8.566;2024-01-06T02:38:07;96605.00;;;9.40
15062;BMP180;7630;50.306;8.566;2024-01-06T02:42:10;96605.00;;;9.50
15062;BMP180;7630;50.306;8.566;2024-01-06T02:46:11;96617.00;;;8.20
15062;BMP180;7630;50.306;8.566;2024-01-06T02:50:12;96619.00;;;9.10
15062;BMP180;7630;50.306;8.566;2024-01-06T02:54:14;96623.00;;;9.50
15062;BMP180;7630;50.306;8.566;2024-01-06T02:58:15;96636.00;;;9.30
15062;BMP180;7630;50.306;8.566;2024-01-06T03:02:16;96635.00;;;9.50
15062;BMP180;7630;50.306;8.566;2024-01-06T03:06:18;96635.00;;;10.00
15062;BMP180;7630;50.306;8.566;2024-01-06T03:10:19;96630.00;;;9.80
15062;BMP180;7630;50.306;8.566;2024-01-06T03:14:20;96630.00;;;9.70
15062;BMP180;7630;50.306;8.566;2024-01-06T03:18:21;96632.00;;;9.90
15062;BMP180;7630;50.306;8.566;2024-01-06T03:22:23;96633.00;;;9.70
15062;BMP180;7630;50.306;8.566;2024-01-06T03:26:24;96650.00;;;9.70
15062;BMP180;7630;50.306;8.566;2024-01-06T03:30:25;96635.00;;;9.80
15062;BMP180;7630;50.306;8.566;2024-01-06T03:34:26;96635.00;;;10.00
15062;BMP180;7630;50.306;8.566;2024-01-06T03:38:27;96638.00;;;10.10
15062;BMP180;7630;50.306;8.566;2024-01-06T03:42:28;96639.00;;;10.00
15062;BMP180;7630;50.306;8.566;2024-01-06T03:46:29;96637.00;;;9.50
15062;BMP180;7630;50.306;8.566;2024-01-06T03:50:31;96631.00;;;9.00
15062;BMP180;7630;50.306;8.566;2024-01-06T03:54:32;96638.00;;;8.50
15062;BMP180;7630;50.306;8.566;2024-01-06T03:58:33;96642.00;;;8.20
15062;BMP180;7630;50.306;8.566;2024-01-06T04:02:35;96649.00;;;8.70
15062;BMP180;7630;50.306;8.566;2024-01-06T04:06:36;96646.00;;;9.50
15062;BMP180;7630;50.306;8.566;2024-01-06T04:10:37;96654.00;;;9.90
15062;BMP180;7630;50.306;8.566;2024-01-06T04:14:38;96652.00;;;9.60
15062;BMP180;7630;50.306;8.566;2024-01-06T04:18:39;96641.00;;;9.30
15062;BMP180;7630;50.306;8.566;2024-01-06T04:22:41;96645.00;;;9.70
15062;BMP180;7630;50.306;8.566;2024-01-06T04:26:42;96646.00;;;9.50
15062;BMP180;7630;50.306;8.566;2024-01-06T04:30:45;96651.00;;;8.60
15062;BMP180;7630;50.306;8.566;2024-01-06T04:34:46;96657.00;;;7.10
15062;BMP180;7630;50.306;8.566;2024-01-06T04:38:47;96666.00;;;8.30
15062;BMP180;7630;50.306;8.566;2024-01-06T04:42:48;96664.00;;;8.40
15062;BMP180;7630;50.306;8.566;2024-01-06T04:46:49;96679.00;;;9.00
15062;BMP180;7630;50.306;8.566;2024-01-06T04:50:51;96670.00;;;9.20
15062;BMP180;7630;50.306;8.566;2024-01-06T04:54:52;96665.00;;;9.70
15062;BMP180;7630;50.306;8.566;2024-01-06T04:58:53;96671.00;;;9.40
15062;BMP180;7630;50.306;8.566;2024-01-06T05:02:54;96659.00;;;8.90
15062;BMP180;7630;50.306;8.566;2024-01-06T05:06:55;96654.00;;;9.10
15062;BMP180;7630;50.306;8.566;2024-01-06T05:10:57;96665.00;;;9.50
15062;BMP180;7630;50.306;8.566;2024-01-06T05:14:58;96668.00;;;9.50
15062;BMP180;7630;50.306;8.566;2024-01-06T05:18:59;96663.00;;;9.50
15062;BMP180;7630;50.306;8.566;2024-01-06T05:23:01;96665.00;;;9.80
15062;BMP180;7630;50.306;8.566;2024-01-06T05:27:02;96666.00;;;9.80
15062;BMP180;7630;50.306;8.566;2024-01-06T05:31:03;96668.00;;;9.70
15062;BMP180;7630;50.306;8.566;2024-01-06T05:35:05;96679.00;;;9.80
15062;BMP180;7630;50.306;8.566;2024-01-06T05:39:07;96675.00;;;9.80
15062;BMP180;7630;50.306;8.566;2024-01-06T05:43:08;96671.00;;;9.10
15062;BMP180;7630;50.306;8.566;2024-01-06T05:47:09;96674.00;;;9.80
15062;BMP180;7630;50.306;8.566;2024-01-06T05:51:10;96672.00;;;9.80
15062;BMP180;7630;50.306;8.566;2024-01-06T05:55:11;96683.00;;;10.00
15062;BMP180;7630;50.306;8.566;2024-01-06T05:59:12;96689.00;;;10.00
15062;BMP180;7630;50.306;8.566;2024-01-06T06:03:13;96689.00;;;9.90
15062;BMP180;7630;50.306;8.566;2024-01-06T06:07:15;96725.00;;;9.80
15062;BMP180;7630;50.306;8.566;2024-01-06T06:11:16;96708.00;;;10.00
15062;BMP180;7630;50.306;8.566;2024-01-06T06:15:17;96706.00;;;10.10
15062;BMP180;7630;50.306;8.566;2024-01-06T06:19:18;96718.00;;;10.10
15062;BMP180;7630;50.306;8.566;2024-01-06T06:23:20;96718.00;;;9.90
15062;BMP180;7630;50.306;8.566;2024-01-06T06:27:21;96724.00;;;10.20
15062;BMP180;7630;50.306;8.566;2024-01-06T06:31:22;96726.00;;;9.90
15062;BMP180;7630;50.306;8.566;2024-01-06T06:35:24;96739.00;;;9.60
15062;BMP180;7630;50.306;8.566;2024-01-06T06:39:25;96739.00;;;9.60
15062;BMP180;7630;50.306;8.566;2024-01-06T06:43:28;96736.00;;;9.70
15062;BMP180;7630;50.306;8.566;2024-01-06T06:47:29;96747.00;;;9.20
15062;BMP180;7630;50.306;8.566;2024-01-06T06:51:30;96762.00;;;10.10
15062;BMP180;7630;50.306;8.566;2024-01-06T06:55:31;96752.00;;;10.00
15062;BMP180;7630;50.306;8.566;2024-01-06T06:59:32;96758.00;;;10.30
15062;BMP180;7630;50.306;8.566;2024-01-06T07:03:33;96767.00;;;10.30
15062;BMP180;7630;50.306;8.566;2024-01-06T07:07:34;96781.00;;;10.50
15062;BMP180;7630;50.306;8.566;2024-01-06T07:11:35;96792.00;;;10.50
15062;BMP180;7630;50.306;8.566;2024-01-06T07:15:36;96788.00;;;10.50
15062;BMP180;7630;50.306;8.566;2024-01-06T07:19:37;96788.00;;;10.50
15062;BMP180;7630;50.306;8.566;2024-01-06T07:23:39;96792.00;;;10.60
15062;BMP180;7630;50.306;8.566;2024-01-06T07:27:41;96792.00;;;10.60
15062;BMP180;7630;50.306;8.566;2024-01-06T07:31:42;96797.00;;;10.60
15062;BMP180;7630;50.306;8.566;2024-01-06T07:35:43;96798.00;;;10.00
15062;BMP180;7630;50.306;8.566;2024-01-06T07:39:44;96811.00;;;9.60
15062;BMP180;7630;50.306;8.566;2024-01-06T07:43:45;96813.00;;;9.70
15062;BMP180;7630;50.306;8.566;2024-01-06T07:47:46;96820.00;;;10.30
15062;BMP180;7630;50.306;8.566;2024-01-06T07:51:47;96826.00;;;10.50
15062;BMP180;7630;50.306;8.566;2024-01-06T07:55:49;96829.00;;;10.50
15062;BMP180;7630;50.306;8.566;2024-01-06T07:59:50;96836.00;;;10.60
15062;BMP180;7630;50.306;8.566;2024-01-06T08:03:51;96835.00;;;10.30
15062;BMP180;7630;50.306;8.566;2024-01-06T08:07:53;96850.00;;;10.30
15062;BMP180;7630;50.306;8.566;2024-01-06T08:11:54;96854.00;;;10.40
15062;BMP180;7630;50.306;8.566;2024-01-06T08:15:55;96862.00;;;10.70
15062;BMP180;7630;50.306;8.566;2024-01-06T08:19:56;96869.00;;;10.60
15062;BMP180;7630;50.306;8.566;2024-01-06T08:23:57;96871.00;;;10.70
15062;BMP180;7630;50.306;8.566;2024-01-06T08:27:58;96876.00;;;10.60
15062;BMP180;7630;50.306;8.566;2024-01-06T08:32:00;96869.00;;;9.70
15062;BMP180;7630;50.306;8.566;2024-01-06T08:36:01;96874.00;;;10.10
15062;BMP180;7630;50.306;8.566;2024-01-06T08:40:04;96881.00;;;10.00
15062;BMP180;7630;50.306;8.566;2024-01-06T08:44:05;96885.00;;;10.50
15062;BMP180;7630;50.306;8.566;2024-01-06T08:48:06;96902.00;;;9.50
15062;BMP180;7630;50.306;8.566;2024-01-06T08:52:08;96892.00;;;10.30
15062;BMP180;7630;50.306;8.566;2024-01-06T08:56:09;96903.00;;;10.30
15062;BMP180;7630;50.306;8.566;2024-01-06T09:00:10;96904.00;;;10.90
15062;BMP180;7630;50.306;8.566;2024-01-06T09:04:12;96910.00;;;11.10
15062;BMP180;7630;50.306;8.566;2024-01-06T09:08:13;96913.00;;;10.90
15062;BMP180;7630;50.306;8.566;2024-01-06T09:12:14;96912.00;;;10.90
15062;BMP180;7630;50.306;8.566;2024-01-06T09:16:16;96908.00;;;10.80
15062;BMP180;7630;50.306;8.566;2024-01-06T09:20:17;96913.00;;;10.80
15062;BMP180;7630;50.306;8.566;2024-01-06T09:24:18;96920.00;;;11.00
15062;BMP180;7630;50.306;8.566;2024-01-06T09:28:19;96923.00;;;11.30
15062;BMP180;7630;50.306;8.566;2024-01-06T09:32:22;96926.00;;;11.40
15062;BMP180;7630;50.306;8.566;2024-01-06T09:36:24;96930.00;;;11.40
15062;BMP180;7630;50.306;8.566;2024-01-06T09:40:25;96934.00;;;11.60
15062;BMP180;7630;50.306;8.566;2024-01-06T09:44:26;96941.00;;;11.60
15062;BMP180;7630;50.306;8.566;2024-01-06T09:48:29;96950.00;;;11.60
15062;BMP180;7630;50.306;8.566;2024-01-06T09:52:32;96944.00;;;11.00
15062;BMP180;7630;50.306;8.566;2024-01-06T09:56:34;96938.00;;;11.30
15062;BMP180;7630;50.306;8.566;2024-01-06T10:00:35;96949.00;;;11.30
15062;BMP180;7630;50.306;8.566;2024-01-06T10:04:36;96943.00;;;11.50
15062;BMP180;7630;50.306;8.566;2024-01-06T10:08:38;96946.00;;;11.40
15062;BMP180;7630;50.306;8.566;2024-01-06T10:12:41;96955.00;;;11.00
15062;BMP180;7630;50.306;8.566;2024-01-06T10:16:43;96948.00;;;11.20
15062;BMP180;7630;50.306;8.566;2024-01-06T10:20:44;96963.00;;;11.20
15062;BMP180;7630;50.306;8.566;2024-01-06T10:24:48;96960.00;;;10.80
15062;BMP180;7630;50.306;8.566;2024-01-06T10:28:49;96969.00;;;10.70
15062;BMP180;7630;50.306;8.566;2024-01-06T10:32:51;96963.00;;;8.50
15062;BMP180;7630;50.306;8.566;2024-01-06T10:36:53;96975.00;;;8.70
15062;BMP180;7630;50.306;8.566;2024-01-06T10:41:05;96979.00;;;9.80
15062;BMP180;7630;50.306;8.566;2024-01-06T10:45:07;96987.00;;;11.10
15062;BMP180;7630;50.306;8.566;2024-01-06T10:49:10;96985.00;;;11.30
15062;BMP180;7630;50.306;8.566;2024-01-06T10:53:13;96984.00;;;11.70
15062;BMP180;7630;50.306;8.566;2024-01-06T10:57:16;96991.00;;;11.20
15062;BMP180;7630;50.306;8.566;2024-01-06T11:01:21;96982.00;;;11.30
15062;BMP180;7630;50.306;8.566;2024-01-06T11:05:25;96981.00;;;10.90
15062;BMP180;7630;50.306;8.566;2024-01-06T11:09:29;96978.00;;;10.60
15062;BMP180;7630;50.306;8.566;2024-01-06T11:13:32;96969.00;;;10.20
15062;BMP180;7630;50.306;8.566;2024-01-06T11:17:52;96981.00;;;10.40
15062;BMP180;7630;50.306;8.566;2024-01-06T11:26:22;96969.00;;;11.00
15062;BMP180;7630;50.306;8.566;2024-01-06T11:30:25;96971.00;;;11.30
15062;BMP180;7630;50.306;8.566;2024-01-06T11:34:29;96963.00;;;10.80
15062;BMP180;7630;50.306;8.566;2024-01-06T11:38:36;96962.00;;;9.90
15062;BMP180;7630;50.306;8.566;2024-01-06T11:42:36;96971.00;;;10.50
15062;BMP180;7630;50.306;8.566;2024-01-06T11:46:38;96972.00;;;10.70
15062;BMP180;7630;50.306;8.566;2024-01-06T11:50:40;96964.00;;;10.80
15062;BMP180;7630;50.306;8.566;2024-01-06T11:54:42;96964.00;;;9.90
15062;BMP180;7630;50.306;8.566;2024-01-06T11:58:45;96969.00;;;9.90
15062;BMP180;7630;50.306;8.566;2024-01-06T12:02:46;96959.00;;;10.30
15062;BMP180;7630;50.306;8.566;2024-01-06T12:06:48;96951.00;;;9.90
15062;BMP180;7630;50.306;8.566;2024-01-06T12:11:03;96957.00;;;9.80
15062;BMP180;7630;50.306;8.566;2024-01-06T12:15:05;96956.00;;;9.40
15062;BMP180;7630;50.306;8.566;2024-01-06T12:19:08;96953.00;;;10.50
15062;BMP180;7630;50.306;8.566;2024-01-06T12:23:10;96954.00;;;10.70
15062;BMP180;7630;50.306;8.566;2024-01-06T12:27:11;96950.00;;;10.50
15062;BMP180;7630;50.306;8.566;2024-01-06T12:31:13;96957.00;;;10.70
15062;BMP180;7630;50.306;8.566;2024-01-06T12:35:15;96967.00;;;10.60
15062;BMP180;7630;50.306;8.566;2024-01-06T12:39:16;96960.00;;;10.30
15062;BMP180;7630;50.306;8.566;2024-01-06T12:43:18;96966.00;;;10.10
15062;BMP180;7630;50.306;8.566;2024-01-06T12:47:19;96954.00;;;10.30
15062;BMP180;7630;50.306;8.566;2024-01-06T12:51:20;96960.00;;;10.60
15062;BMP180;7630;50.306;8.566;2024-01-06T12:55:21;96975.00;;;9.70
15062;BMP180;7630;50.306;8.566;2024-01-06T12:59:22;96971.00;;;10.60
15062;BMP180;7630;50.306;8.566;2024-01-06T13:03:24;96973.00;;;10.20
15062;BMP180;7630;50.306;8.566;2024-01-06T13:07:25;96980.00;;;8.00
15062;BMP180;7630;50.306;8.566;2024-01-06T13:11:26;96977.00;;;9.30
15062;BMP180;7630;50.306;8.566;2024-01-06T13:15:28;96993.00;;;9.00
15062;BMP180;7630;50.306;8.566;2024-01-06T13:19:30;96996.00;;;8.60
15062;BMP180;7630;50.306;8.566;2024-01-06T13:23:31;96999.00;;;8.30
15062;BMP180;7630;50.306;8.566;2024-01-06T13:27:32;97000.00;;;7.90
15062;BMP180;7630;50.306;8.566;2024-01-06T13:31:33;97009.00;;;8.60
15062;BMP180;7630;50.306;8.566;2024-01-06T13:35:35;97034.00;;;8.40
15062;BMP180;7630;50.306;8.566;2024-01-06T13:39:37;97020.00;;;8.80
15062;BMP180;7630;50.306;8.566;2024-01-06T13:43:39;97016.00;;;9.50
15062;BMP180;7630;50.306;8.566;2024-01-06T13:47:40;97017.00;;;8.90
15062;BMP180;7630;50.306;8.566;2024-01-06T13:51:43;97023.00;;;8.90
15062;BMP180;7630;50.306;8.566;2024-01-06T13:55:44;97022.00;;;9.00
15062;BMP180;7630;50.306;8.566;2024-01-06T13:59:45;97028.00;;;9.50
15062;BMP180;7630;50.306;8.566;2024-01-06T14:03:47;97030.00;;;9.80
15062;BMP180;7630;50.306;8.566;2024-01-06T14:07:48;97023.00;;;9.10
15062;BMP180;7630;50.306;8.566;2024-01-06T14:11:51;97033.00;;;8.90
15062;BMP180;7630;50.306;8.566;2024-01-06T14:15:53;97043.00;;;8.70
15062;BMP180;7630;50.306;8.566;2024-01-06T14:19:54;97040.00;;;8.10
15062;BMP180;7630;50.306;8.566;2024-01-06T14:23:55;97053.00;;;7.10
15062;BMP180;7630;50.306;8.566;2024-01-06T14:27:56;97046.00;;;7.40
15062;BMP180;7630;50.306;8.566;2024-01-06T14:31:58;97049.00;;;8.00
15062;BMP180;7630;50.306;8.566;2024-01-06T14:35:59;97060.00;;;6.70
15062;BMP180;7630;50.306;8.566;2024-01-06T14:40:01;97059.00;;;6.70
15062;BMP180;7630;50.306;8.566;2024-01-06T14:44:06;97061.00;;;7.30
15062;BMP180;7630;50.306;8.566;2024-01-06T14:48:07;97066.00;;;7.80
15062;BMP180;7630;50.306;8.566;2024-01-06T14:52:09;97066.00;;;8.20
15062;BMP180;7630;50.306;8.566;2024-01-06T14:56:10;97070.00;;;8.80
15062;BMP180;7630;50.306;8.566;2024-01-06T15:00:11;97082.00;;;8.30
15062;BMP180;7630;50.306;8.566;2024-01-06T15:04:12;97082.00;;;8.80
15062;BMP180;7630;50.306;8.566;2024-01-06T15:08:14;97085.00;;;9.20
15062;BMP180;7630;50.306;8.566;2024-01-06T15:12:15;97087.00;;;9.20
15062;BMP180;7630;50.306;8.566;2024-01-06T15:16:16;97093.00;;;8.50
15062;BMP180;7630;50.306;8.566;2024-01-06T15:20:18;97091.00;;;9.00
15062;BMP180;7630;50.306;8.566;2024-01-06T15:24:19;97085.00;;;9.10
15062;BMP180;7630;50.306;8.566;2024-01-06T15:28:21;97091.00;;;9.10
15062;BMP180;7630;50.306;8.566;2024-01-06T15:32:22;97102.00;;;8.30
15062;BMP180;7630;50.306;8.566;2024-01-06T15:36:23;97109.00;;;8.90
15062;BMP180;7630;50.306;8.566;2024-01-06T15:40:24;97105.00;;;8.60
15062;BMP180;7630;50.306;8.566;2024-01-06T15:44:26;97106.00;;;8.70
15062;BMP180;7630;50.306;8.566;2024-01-06T15:48:27;97110.00;;;9.00
15062;BMP180;7630;50.306;8.566;2024-01-06T15:52:28;97111.00;;;9.00
15062;BMP180;7630;50.306;8.566;2024-01-06T15:56:29;97112.00;;;8.80
15062;BMP180;7630;50.306;8.566;2024-01-06T16:00:30;97110.00;;;8.70
15062;BMP180;7630;50.306;8.566;2024-01-06T16:04:33;97116.00;;;8.80
15062;BMP180;7630;50.306;8.566;2024-01-06T16:08:34;97127.00;;;8.60
15062;BMP180;7630;50.306;8.566;2024-01-06T16:12:42;97120.00;;;8.30
15062;BMP180;7630;50.306;8.566;2024-01-06T16:16:41;97127.00;;;8.50
15062;BMP180;7630;50.306;8.566;2024-01-06T16:20:42;97126.00;;;8.00
15062;BMP180;7630;50.306;8.566;2024-01-06T16:24:43;97133.00;;;8.80
15062;BMP180;7630;50.306;8.566;2024-01-06T16:28:45;97135.00;;;8.50
15062;BMP180;7630;50.306;8.566;2024-01-06T16:32:47;97143.00;;;8.50
15062;BMP180;7630;50.306;8.566;2024-01-06T16:36:48;97145.00;;;8.30
15062;BMP180;7630;50.306;8.566;2024-01-06T16:40:50;97147.00;;;8.00
15062;BMP180;7630;50.306;8.566;2024-01-06T16:44:51;97150.00;;;8.00
15062;BMP180;7630;50.306;8.566;2024-01-06T16:48:52;97162.00;;;8.30
15062;BMP180;7630;50.306;8.566;2024-01-06T16:52:53;97163.00;;;7.70
15062;BMP180;7630;50.306;8.566;2024-01-06T16:56:55;97168.00;;;8.40
15062;BMP180;7630;50.306;8.566;2024-01-06T17:00:58;97162.00;;;8.20
15062;BMP180;7630;50.306;8.566;2024-01-06T17:04:59;97162.00;;;8.20
15062;BMP180;7630;50.306;8.566;2024-01-06T17:09:01;97170.00;;;7.10
15062;BMP180;7630;50.306;8.566;2024-01-06T17:13:02;97169.00;;;7.30
15062;BMP180;7630;50.306;8.566;2024-01-06T17:17:04;97181.00;;;7.70
15062;BMP180;7630;50.306;8.566;2024-01-06T17:21:06;97206.00;;;7.70
15062;BMP180;7630;50.306;8.566;2024-01-06T17:25:07;97188.00;;;7.30
15062;BMP180;7630;50.306;8.566;2024-01-06T17:29:12;97196.00;;;7.80
15062;BMP180;7630;50.306;8.566;2024-01-06T17:33:14;97197.00;;;8.80
15062;BMP180;7630;50.306;8.566;2024-01-06T17:37:15;97188.00;;;8.50
15062;BMP180;7630;50.306;8.566;2024-01-06T17:41:16;97191.00;;;8.40
15062;BMP180;7630;50.306;8.566;2024-01-06T17:45:17;97196.00;;;8.70
15062;BMP180;7630;50.306;8.566;2024-01-06T17:49:18;97202.00;;;8.50
15062;BMP180;7630;50.306;8.566;2024-01-06T17:53:20;97206.00;;;8.50
15062;BMP180;7630;50.306;8.566;2024-01-06T17:57:21;97207.00;;;8.90
15062;BMP180;7630;50.306;8.566;2024-01-06T18:01:22;97210.00;;;8.80
15062;BMP180;7630;50.306;8.566;2024-01-06T18:05:24;97209.00;;;8.50
15062;BMP180;7630;50.306;8.566;2024-01-06T18:09:25;97210.00;;;8.40
15062;BMP180;7630;50.306;8.566;2024-01-06T18:13:28;97223.00;;;9.00
15062;BMP180;7630;50.306;8.566;2024-01-06T18:17:30;97220.00;;;8.60
15062;BMP180;7630;50.306;8.566;2024-01-06T18:21:31;97226.00;;;7.70
15062;BMP180;7630;50.306;8.566;2024-01-06T18:25:32;97216.00;;;8.00
15062;BMP180;7630;50.306;8.566;2024-01-06T18:29:34;97227.00;;;8.00
15062;BMP180;7630;50.306;8.566;2024-01-06T18:33:37;97229.00;;;8.10
15062;BMP180;7630;50.306;8.566;2024-01-06T18:37:39;97230.00;;;8.20
15062;BMP180;7630;50.306;8.566;2024-01-06T18:41:40;97229.00;;;8.40
15062;BMP180;7630;50.306;8.566;2024-01-06T18:45:42;97235.00;;;8.40
15062;BMP180;7630;50.306;8.566;2024-01-06T18:49:43;97240.00;;;8.30
15062;BMP180;7630;50.306;8.566;2024-01-06T18:53:44;97240.00;;;8.40
15062;BMP180;7630;50.306;8.566;2024-01-06T18:57:45;97243.00;;;8.20
15062;BMP180;7630;50.306;8.566;2024-01-06T19:01:47;97245.00;;;8.50
15062;BMP180;7630;50.306;8.566;2024-01-06T19:05:48;97246.00;;;8.50
15062;BMP180;7630;50.306;8.566;2024-01-06T19:09:49;97241.00;;;8.20
15062;BMP180;7630;50.306;8.566;2024-01-06T19:13:50;97239.00;;;8.70
15062;BMP180;7630;50.306;8.566;2024-01-06T19:17:51;97243.00;;;8.60
15062;BMP180;7630;50.306;8.566;2024-01-06T19:21:53;97247.00;;;8.20
15062;BMP180;7630;50.306;8.566;2024-01-06T19:25:54;97255.00;;;8.10
15062;BMP180;7630;50.306;8.566;2024-01-06T19:29:55;97259.00;;;8.40
15062;BMP180;7630;50.306;8.566;2024-01-06T19:33:56;97265.00;;;8.20
15062;BMP180;7630;50.306;8.566;2024-01-06T19:37:57;97258.00;;;8.00
15062;BMP180;7630;50.306;8.566;2024-01-06T19:41:58;97263.00;;;8.00
15062;BMP180;7630;50.306;8.566;2024-01-06T19:46:01;97257.00;;;8.10
15062;BMP180;7630;50.306;8.566;2024-01-06T19:50:03;97256.00;;;8.40
15062;BMP180;7630;50.306;8.566;2024-01-06T19:54:05;97271.00;;;7.80
15062;BMP180;7630;50.306;8.566;2024-01-06T19:58:08;97260.00;;;7.70
15062;BMP180;7630;50.306;8.566;2024-01-06T20:02:09;97266.00;;;8.40
15062;BMP180;7630;50.306;8.566;2024-01-06T20:06:10;97268.00;;;8.30
15062;BMP180;7630;50.306;8.566;2024-01-06T20:10:11;97279.00;;;8.30
15062;BMP180;7630;50.306;8.566;2024-01-06T20:14:13;97272.00;;;8.40
15062;BMP180;7630;50.306;8.566;2024-01-06T20:18:14;97281.00;;;8.10
15062;BMP180;7630;50.306;8.566;2024-01-06T20:22:16;97278.00;;;8.30
15062;BMP180;7630;50.306;8.566;2024-01-06T20:26:17;97276.00;;;8.20
15062;BMP180;7630;50.306;8.566;2024-01-06T20:30:18;97265.00;;;8.00
15062;BMP180;7630;50.306;8.566;2024-01-06T20:34:20;97280.00;;;8.10
15062;BMP180;7630;50.306;8.566;2024-01-06T20:38:21;97298.00;;;8.00
15062;BMP180;7630;50.306;8.566;2024-01-06T20:42:24;97276.00;;;8.00
15062;BMP180;7630;50.306;8.566;2024-01-06T20:46:26;97284.00;;;8.30
15062;BMP180;7630;50.306;8.566;2024-01-06T20:50:27;97290.00;;;8.20
15062;BMP180;7630;50.306;8.566;2024-01-06T20:54:28;97284.00;;;7.60
15062;BMP180;7630;50.306;8.566;2024-01-06T20:58:29;97280.00;;;7.50
15062;BMP180;7630;50.306;8.566;2024-01-06T21:02:30;97286.00;;;6.70
15062;BMP180;7630;50.306;8.566;2024-01-06T21:06:32;97292.00;;;6.20
15062;BMP180;7630;50.306;8.566;2024-01-06T21:10:33;97283.00;;;5.80
15062;BMP180;7630;50.306;8.566;2024-01-06T21:14:34;97291.00;;;6.70
15062;BMP180;7630;50.306;8.566;2024-01-06T21:18:36;97281.00;;;6.30
15062;BMP180;7630;50.306;8.566;2024-01-06T21:22:38;97285.00;;;5.50
15062;BMP180;7630;50.306;8.566;2024-01-06T21:26:39;97282.00;;;7.10
15062;BMP180;7630;50.306;8.566;2024-01-06T21:30:40;97281.00;;;6.30
15062;BMP180;7630;50.306;8.566;2024-01-06T21:34:41;97285.00;;;5.80
15062;BMP180;7630;50.306;8.566;2024-01-06T21:38:43;97292.00;;;5.60
15062;BMP180;7630;50.306;8.566;2024-01-06T21:42:44;97288.00;;;5.30
15062;BMP180;7630;50.306;8.566;2024-01-06T21:46:45;97296.00;;;5.70
15062;BMP180;7630;50.306;8.566;2024-01-06T21:50:47;97297.00;;;5.90
15062;BMP180;7630;50.306;8.566;2024-01-06T21:54:49;97309.00;;;6.50
15062;BMP180;7630;50.306;8.566;2024-01-06T21:58:50;97298.00;;;5.80
15062;BMP180;7630;50.306;8.566;2024-01-06T22:02:51;97299.00;;;5.10
15062;BMP180;7630;50.306;8.566;2024-01-06T22:06:53;97311.00;;;6.30
15062;BMP180;7630;50.306;8.566;2024-01-06T22:10:54;97317.00;;;6.20
15062;BMP180;7630;50.306;8.566;2024-01-06T22:14:55;97320.00;;;4.30
15062;BMP180;7630;50.306;8.566;2024-01-06T22:18:56;97328.00;;;4.90
15062;BMP180;7630;50.306;8.566;2024-01-06T22:22:57;97321.00;;;4.30
15062;BMP180;7630;50.306;8.566;2024-01-06T22:26:59;97319.00;;;4.10
15062;BMP180;7630;50.306;8.566;2024-01-06T22:31:00;97312.00;;;3.70
15062;BMP180;7630;50.306;8.566;2024-01-06T22:35:04;97319.00;;;4.60
15062;BMP180;7630;50.306;8.566;2024-01-06T22:39:05;97313.00;;;5.00
15062;BMP180;7630;50.306;8.566;2024-01-06T22:43:06;97324.00;;;4.90
15062;BMP180;7630;50.306;8.566;2024-01-06T22:47:08;97326.00;;;4.40
15062;BMP180;7630;50.306;8.566;2024-01-06T22:51:09;97331.00;;;3.80
15062;BMP180;7630;50.306;8.566;2024-01-06T22:55:10;97331.00;;;3.50
15062;BMP180;7630;50.306;8.566;2024-01-06T22:59:11;97325.00;;;3.70
15062;BMP180;7630;50.306;8.566;2024-01-06T23:03:12;97320.00;;;3.40
15062;BMP180;7630;50.306;8.566;2024-01-06T23:07:13;97329.00;;;3.40
15062;BMP180;7630;50.306;8.566;2024-01-06T23:11:16;97319.00;;;2.90
15062;BMP180;7630;50.306;8.566;2024-01-06T23:15:18;97325.00;;;3.30
15062;BMP180;7630;50.306;8.566;2024-01-06T23:19:19;97331.00;;;3.70
15062;BMP180;7630;50.306;8.566;2024-01-06T23:23:21;97336.00;;;3.80
15062;BMP180;7630;50.306;8.566;2024-01-06T23:27:22;97333.00;;;2.90
15062;BMP180;7630;50.306;8.566;2024-01-06T23:31:23;97341.00;;;3.50
15062;BMP180;7630;50.306;8.566;2024-01-06T23:35:24;97339.00;;;3.60
15062;BMP180;7630;50.306;8.566;2024-01-06T23:39:26;97337.00;;;3.30
15062;BMP180;7630;50.306;8.566;2024-01-06T23:43:27;97334.00;;;2.80
15062;BMP180;7630;50.306;8.566;2024-01-06T23:47:28;97340.00;;;3.00
15062;BMP180;7630;50.306;8.566;2024-01-06T23:51:29;97348.00;;;3.60